createdAt,value
2023-03-10T00:02:10.200Z,1.42
2023-03-10T00:04:37.103Z,1.15
2023-03-10T00:07:03.804Z,0.73
2023-03-10T00:09:30.506Z,1.05
2023-03-10T00:11:57.237Z,0.90
2023-03-10T00:14:23.929Z,0.90
2023-03-10T00:16:50.628Z,0.80
2023-03-10T00:19:17.316Z,2.22
2023-03-10T00:21:45.587Z,1.77
2023-03-10T00:24:12.412Z,1.10
2023-03-10T00:26:39.094Z,1.20
2023-03-10T00:29:06.017Z,1.10
2023-03-10T00:31:34.606Z,0.80
2023-03-10T00:34:01.495Z,1.25
2023-03-10T00:36:29.039Z,0.70
2023-03-10T00:38:56.423Z,0.80
2023-03-10T00:41:24.632Z,0.93
2023-03-10T00:43:51.788Z,0.80
2023-03-10T00:46:18.687Z,1.00
2023-03-10T00:48:45.478Z,0.80
2023-03-10T00:51:12.553Z,0.70
2023-03-10T00:53:39.830Z,0.80
2023-03-10T00:56:08.382Z,0.50
2023-03-10T00:58:35.331Z,0.60
2023-03-10T01:01:02.409Z,0.70
2023-03-10T01:03:29.317Z,0.70
2023-03-10T01:05:56.154Z,0.60
2023-03-10T01:08:23.040Z,1.13
2023-03-10T01:10:50.058Z,0.65
2023-03-10T01:13:17.284Z,0.85
2023-03-10T01:15:48.680Z,1.27
2023-03-10T01:18:15.862Z,1.27
2023-03-10T01:20:42.896Z,0.77
2023-03-10T01:23:20.744Z,1.23
2023-03-10T01:25:47.744Z,0.88
2023-03-10T01:28:14.517Z,1.23
2023-03-10T01:30:41.364Z,0.88
2023-03-10T01:33:08.344Z,0.82
2023-03-10T01:35:35.308Z,0.80
2023-03-10T01:38:02.044Z,0.57
2023-03-10T01:40:28.799Z,0.55
2023-03-10T01:43:20.145Z,0.73
2023-03-10T01:45:46.818Z,0.73
2023-03-10T01:48:14.260Z,0.52
2023-03-10T01:50:41.127Z,1.17
2023-03-10T01:53:07.827Z,0.68
2023-03-10T01:55:35.935Z,0.80
2023-03-10T01:58:02.669Z,1.50
2023-03-10T02:00:29.562Z,0.60
2023-03-10T02:03:09.278Z,0.70
2023-03-10T02:05:48.895Z,0.85
2023-03-10T02:08:15.712Z,0.40
2023-03-10T02:10:42.398Z,0.85
2023-03-10T02:13:09.235Z,0.52
2023-03-10T02:15:36.281Z,0.60
2023-03-10T02:18:03.498Z,0.77
2023-03-10T02:20:33.406Z,1.08
2023-03-10T02:23:00.136Z,1.13
2023-03-10T02:25:39.672Z,0.60
2023-03-10T02:28:06.418Z,0.75
2023-03-10T02:30:36.269Z,0.70
2023-03-10T02:33:07.842Z,0.88
2023-03-10T02:35:34.555Z,0.93
2023-03-10T02:38:01.251Z,0.65
2023-03-10T02:40:37.517Z,0.70
2023-03-10T02:43:11.213Z,0.95
2023-03-10T02:45:38.483Z,0.43
2023-03-10T02:48:05.375Z,0.70
2023-03-10T02:50:34.766Z,0.85
2023-03-10T02:53:08.364Z,0.98
2023-03-10T02:55:35.055Z,0.80
2023-03-10T02:58:02.635Z,0.80
2023-03-10T03:00:30.001Z,1.15
2023-03-10T03:02:57.459Z,1.00
2023-03-10T03:05:24.383Z,1.02
2023-03-10T03:07:51.049Z,1.45
2023-03-10T03:10:17.834Z,0.82
2023-03-10T03:12:44.572Z,0.80
2023-03-10T03:15:11.493Z,0.80
2023-03-10T03:17:38.178Z,1.42
2023-03-10T03:20:14.031Z,0.90
2023-03-10T03:22:41.737Z,0.70
2023-03-10T03:25:09.783Z,0.90
2023-03-10T03:27:37.082Z,0.93
2023-03-10T03:30:05.828Z,0.70
2023-03-10T03:32:32.568Z,0.90
2023-03-10T03:34:59.914Z,0.75
2023-03-10T03:37:26.567Z,0.82
2023-03-10T03:39:53.311Z,0.82
2023-03-10T03:42:20.087Z,1.00
2023-03-10T03:44:46.745Z,0.93
2023-03-10T03:47:13.434Z,1.00
2023-03-10T03:49:40.258Z,0.82
2023-03-10T03:52:07.310Z,1.27
2023-03-10T03:54:34.128Z,1.25
2023-03-10T03:57:00.806Z,1.35
2023-03-10T03:59:27.552Z,1.00
2023-03-10T04:01:54.207Z,2.53
2023-03-10T04:04:20.929Z,1.60
2023-03-10T04:06:47.639Z,1.27
2023-03-10T04:09:14.370Z,1.70
2023-03-10T04:11:41.126Z,1.95
2023-03-10T04:14:07.794Z,1.85
2023-03-10T04:16:34.533Z,1.98
2023-03-10T04:19:01.869Z,1.50
2023-03-10T04:21:28.622Z,1.83
2023-03-10T04:23:55.336Z,1.70
2023-03-10T04:26:22.028Z,2.13
2023-03-10T04:28:48.738Z,2.15
2023-03-10T04:31:16.555Z,1.83
2023-03-10T04:33:43.327Z,2.45
2023-03-10T04:36:10.041Z,2.28
2023-03-10T04:38:36.921Z,3.33
2023-03-10T04:41:05.104Z,3.55
2023-03-10T04:43:32.370Z,3.03
2023-03-10T04:45:59.141Z,2.47
2023-03-10T04:48:25.935Z,3.17
2023-03-10T04:50:59.896Z,3.25
2023-03-10T04:55:53.169Z,3.42
2023-03-10T04:58:20.612Z,3.08
2023-03-10T05:01:02.149Z,3.55
2023-03-10T05:03:29.712Z,4.65
2023-03-10T05:05:56.457Z,7.07
2023-03-10T05:08:23.195Z,8.25
2023-03-10T05:10:49.916Z,10.52
2023-03-10T05:13:16.668Z,9.43
2023-03-10T05:15:43.441Z,7.10
2023-03-10T05:18:11.527Z,7.65
2023-03-10T05:20:38.575Z,8.15
2023-03-10T05:23:05.374Z,7.72
2023-03-10T05:25:32.198Z,8.02
2023-03-10T05:27:58.944Z,7.20
2023-03-10T05:30:25.619Z,7.00
2023-03-10T05:32:52.326Z,6.10
2023-03-10T05:35:19.214Z,7.13
2023-03-10T05:37:45.924Z,5.75
2023-03-10T05:40:13.881Z,6.30
2023-03-10T05:42:40.659Z,5.35
2023-03-10T05:45:10.144Z,4.80
2023-03-10T05:47:36.813Z,5.70
2023-03-10T05:50:03.848Z,4.93
2023-03-10T05:52:30.582Z,5.22
2023-03-10T05:54:57.246Z,5.40
2023-03-10T05:57:23.937Z,4.47
2023-03-10T05:59:50.608Z,4.53
2023-03-10T06:02:17.310Z,4.78
2023-03-10T06:04:44.129Z,4.50
2023-03-10T06:07:10.803Z,3.35
2023-03-10T06:09:37.527Z,4.15
2023-03-10T06:12:04.526Z,3.92
2023-03-10T06:14:31.207Z,4.22
2023-03-10T06:16:57.968Z,3.65
2023-03-10T06:19:24.958Z,4.47
2023-03-10T06:21:51.681Z,4.00
2023-03-10T06:24:18.455Z,3.28
2023-03-10T06:26:45.248Z,2.78
2023-03-10T06:29:14.521Z,3.25
2023-03-10T06:31:41.254Z,3.50
2023-03-10T06:34:08.025Z,3.40
2023-03-10T06:36:34.789Z,3.67
2023-03-10T06:39:01.457Z,3.35
2023-03-10T06:41:28.453Z,3.40
2023-03-10T06:43:55.156Z,2.75
2023-03-10T06:46:21.945Z,2.83
2023-03-10T06:48:49.743Z,2.60
2023-03-10T06:51:18.177Z,2.03
2023-03-10T06:53:45.011Z,2.45
2023-03-10T06:56:16.323Z,2.10
2023-03-10T06:58:43.127Z,2.22
2023-03-10T07:01:19.071Z,2.10
2023-03-10T07:03:45.894Z,1.83
2023-03-10T07:06:12.575Z,1.60
2023-03-10T07:08:39.258Z,1.90
2023-03-10T07:11:05.944Z,1.67
2023-03-10T07:13:32.626Z,1.88
2023-03-10T07:15:59.319Z,1.50
2023-03-10T07:18:29.463Z,1.17
2023-03-10T07:20:56.242Z,1.35
2023-03-10T07:23:23.642Z,1.00
2023-03-10T07:25:54.401Z,1.00
2023-03-10T07:28:21.078Z,1.30
2023-03-10T07:30:49.322Z,0.98
2023-03-10T07:33:16.524Z,1.33
2023-03-10T07:35:43.281Z,1.40
2023-03-10T07:38:10.170Z,0.95
2023-03-10T07:40:38.879Z,1.38
2023-03-10T07:43:05.629Z,1.15
2023-03-10T07:45:33.547Z,1.60
2023-03-10T07:48:00.251Z,1.00
2023-03-10T07:50:27.006Z,1.40
2023-03-10T07:52:55.043Z,1.10
2023-03-10T07:55:21.784Z,1.20
2023-03-10T07:57:48.456Z,1.42
2023-03-10T08:00:15.744Z,1.10
2023-03-10T08:02:42.651Z,2.00
2023-03-10T08:05:10.258Z,0.75
2023-03-10T08:07:37.807Z,0.65
2023-03-10T08:10:05.157Z,0.82
2023-03-10T08:12:31.849Z,1.25
2023-03-10T08:14:58.596Z,0.75
2023-03-10T08:17:30.636Z,1.00
2023-03-10T08:19:58.475Z,1.10
2023-03-10T08:22:25.372Z,0.80
2023-03-10T08:24:52.175Z,0.70
2023-03-10T08:27:18.900Z,0.70
2023-03-10T08:29:45.662Z,0.88
2023-03-10T08:32:12.544Z,0.70
2023-03-10T08:34:39.301Z,0.80
2023-03-10T08:37:06.498Z,0.63
2023-03-10T08:39:33.216Z,0.70
2023-03-10T08:41:59.977Z,0.63
2023-03-10T08:44:26.808Z,0.90
2023-03-10T08:46:53.860Z,0.90
2023-03-10T08:49:21.234Z,1.27
2023-03-10T08:51:48.253Z,0.75
2023-03-10T08:54:16.854Z,1.38
2023-03-10T08:56:43.622Z,1.25
2023-03-10T08:59:10.345Z,1.25
2023-03-10T09:01:37.292Z,1.08
2023-03-10T09:04:04.940Z,1.20
2023-03-10T09:06:31.809Z,1.35
2023-03-10T09:08:58.760Z,1.13
2023-03-10T09:11:28.156Z,0.88
2023-03-10T09:13:55.115Z,0.70
2023-03-10T09:16:21.931Z,0.90
2023-03-10T09:18:48.909Z,0.50
2023-03-10T09:21:16.657Z,1.02
2023-03-10T09:23:44.368Z,0.55
2023-03-10T09:26:11.076Z,0.50
2023-03-10T09:28:37.859Z,0.60
2023-03-10T09:31:05.726Z,1.08
2023-03-10T09:33:32.519Z,1.23
2023-03-10T09:36:07.619Z,1.15
2023-03-10T09:38:35.651Z,0.88
2023-03-10T09:41:02.392Z,0.50
2023-03-10T09:43:29.104Z,0.60
2023-03-10T09:46:05.004Z,0.40
2023-03-10T09:48:53.886Z,0.50
2023-03-10T09:51:25.061Z,1.00
2023-03-10T09:53:57.739Z,0.60
2023-03-10T09:56:31.520Z,0.80
2023-03-10T09:59:24.441Z,0.52
2023-03-10T10:01:51.205Z,0.70
2023-03-10T10:04:38.171Z,0.60
2023-03-10T10:07:08.091Z,0.35
2023-03-10T10:09:53.149Z,0.40
2023-03-10T10:12:23.650Z,0.60
2023-03-10T10:14:57.688Z,1.50
2023-03-10T10:17:56.449Z,1.75
2023-03-10T10:21:02.459Z,0.50
2023-03-10T10:23:41.255Z,0.40
2023-03-10T10:26:15.932Z,0.38
2023-03-10T10:28:50.744Z,0.52
2023-03-10T10:31:20.481Z,0.38
2023-03-10T10:33:54.480Z,0.30
2023-03-10T10:36:21.307Z,0.40
2023-03-10T10:38:52.251Z,0.40
2023-03-10T10:41:21.491Z,0.40
2023-03-10T10:43:48.562Z,0.40
2023-03-10T10:46:16.521Z,0.38
2023-03-10T10:48:46.065Z,0.50
2023-03-10T10:51:27.203Z,0.50
2023-03-10T10:53:54.838Z,1.40
2023-03-10T10:56:21.704Z,0.50
2023-03-10T10:59:28.051Z,0.43
2023-03-10T11:01:59.471Z,0.38
2023-03-10T11:04:28.120Z,0.40
2023-03-10T11:07:12.113Z,0.57
2023-03-10T11:09:38.926Z,0.50
2023-03-10T11:12:20.443Z,0.47
2023-03-10T11:14:49.419Z,0.60
2023-03-10T11:17:27.429Z,0.50
2023-03-10T11:20:25.551Z,0.70
2023-03-10T11:23:14.219Z,0.85
2023-03-10T11:25:42.950Z,0.35
2023-03-10T11:28:28.582Z,0.40
2023-03-10T11:31:20.123Z,0.68
2023-03-10T11:34:38.993Z,0.55
2023-03-10T11:37:14.430Z,0.30
2023-03-10T11:39:48.446Z,0.52
2023-03-10T11:42:38.829Z,0.50
2023-03-10T11:45:28.764Z,0.45
2023-03-10T11:48:04.678Z,0.57
2023-03-10T11:50:42.440Z,0.45
2023-03-10T11:53:13.589Z,1.48
2023-03-10T11:55:40.347Z,0.50
2023-03-10T11:58:07.152Z,0.60
2023-03-10T12:00:38.652Z,0.82
2023-03-10T12:03:21.117Z,0.90
2023-03-10T12:05:51.125Z,1.10
2023-03-10T12:08:18.240Z,1.08
2023-03-10T12:10:44.995Z,1.10
2023-03-10T12:13:21.219Z,1.15
2023-03-10T12:15:48.037Z,1.10
2023-03-10T12:18:14.725Z,1.65
2023-03-10T12:20:41.534Z,1.50
2023-03-10T12:23:11.038Z,1.48
2023-03-10T12:25:38.373Z,1.65
2023-03-10T12:28:17.114Z,0.90
2023-03-10T12:30:51.477Z,1.30
2023-03-10T12:33:36.121Z,1.25
2023-03-10T12:36:09.247Z,1.00
2023-03-10T12:38:44.629Z,1.00
2023-03-10T12:41:11.575Z,0.80
2023-03-10T12:43:47.463Z,0.90
2023-03-10T12:46:18.878Z,0.68
2023-03-10T12:48:49.368Z,1.25
2023-03-10T12:51:18.994Z,0.60
2023-03-10T12:53:57.096Z,0.60
2023-03-10T12:56:38.647Z,1.13
2023-03-10T12:59:31.311Z,1.85
2023-03-10T13:01:58.027Z,0.60
2023-03-10T13:04:24.712Z,0.73
2023-03-10T13:06:51.506Z,1.60
2023-03-10T13:09:43.615Z,0.80
2023-03-10T13:12:21.832Z,0.70
2023-03-10T13:14:52.214Z,0.80
2023-03-10T13:17:25.973Z,0.75
2023-03-10T13:20:04.313Z,1.02
2023-03-10T13:22:31.325Z,0.80
2023-03-10T13:24:59.821Z,0.80
2023-03-10T13:27:31.557Z,0.90
2023-03-10T13:30:22.387Z,2.78
2023-03-10T13:32:57.692Z,0.75
2023-03-10T13:35:29.892Z,0.75
2023-03-10T13:38:26.900Z,0.73
2023-03-10T13:41:02.126Z,1.35
2023-03-10T13:43:48.571Z,1.00
2023-03-10T13:46:21.725Z,1.33
2023-03-10T13:48:48.472Z,1.10
2023-03-10T13:51:32.392Z,0.82
2023-03-10T13:54:19.438Z,1.00
2023-03-10T13:56:46.185Z,0.80
2023-03-10T13:59:18.136Z,0.93
2023-03-10T14:01:49.935Z,0.73
2023-03-10T14:04:18.185Z,1.00
2023-03-10T14:06:44.968Z,0.88
2023-03-10T14:09:29.784Z,1.10
2023-03-10T14:11:56.481Z,0.90
2023-03-10T14:14:27.524Z,1.08
2023-03-10T14:17:08.336Z,1.55
2023-03-10T14:19:44.141Z,0.80
2023-03-10T14:22:22.988Z,1.00
2023-03-10T14:24:49.696Z,0.80
2023-03-10T14:27:16.431Z,0.70
2023-03-10T14:29:48.992Z,0.90
2023-03-10T14:32:16.058Z,0.68
2023-03-10T14:34:42.894Z,0.90
2023-03-10T14:37:09.542Z,1.00
2023-03-10T14:39:36.298Z,0.80
2023-03-10T14:42:03.668Z,1.00
2023-03-10T14:44:30.675Z,0.90
2023-03-10T14:46:57.689Z,0.90
2023-03-10T14:49:25.529Z,0.75
2023-03-10T14:51:52.289Z,1.48
2023-03-10T14:54:20.726Z,0.93
2023-03-10T14:56:47.543Z,0.63
2023-03-10T14:59:14.691Z,0.70
2023-03-10T15:01:42.354Z,0.77
2023-03-10T15:04:15.956Z,0.70
2023-03-10T15:06:43.267Z,0.73
2023-03-10T15:09:10.031Z,1.58
2023-03-10T15:11:37.759Z,0.88
2023-03-10T15:14:11.380Z,0.80
2023-03-10T15:16:38.215Z,1.17
2023-03-10T15:19:04.951Z,0.88
2023-03-10T15:21:31.699Z,0.90
2023-03-10T15:23:58.395Z,0.80
2023-03-10T15:26:25.100Z,1.50
2023-03-10T15:28:51.932Z,1.23
2023-03-10T15:31:18.779Z,0.80
2023-03-10T15:33:45.516Z,1.10
2023-03-10T15:36:12.277Z,1.10
2023-03-10T15:38:39.147Z,1.27
2023-03-10T15:41:06.006Z,0.80
2023-03-10T15:43:32.873Z,1.38
2023-03-10T15:46:04.311Z,0.80
2023-03-10T15:48:31.164Z,1.20
2023-03-10T15:50:58.012Z,1.13
2023-03-10T15:53:24.706Z,1.00
2023-03-10T15:55:52.572Z,0.75
2023-03-10T15:58:19.531Z,1.52
2023-03-10T16:00:46.340Z,1.10
2023-03-10T16:03:17.087Z,1.10
2023-03-10T16:05:48.593Z,2.55
2023-03-10T16:08:15.336Z,2.28
2023-03-10T16:10:54.261Z,4.63
2023-03-10T16:13:21.555Z,2.45
2023-03-10T16:15:48.299Z,2.38
2023-03-10T16:18:15.068Z,12.20
2023-03-10T16:20:41.826Z,4.18
2023-03-10T16:23:08.630Z,5.93
2023-03-10T16:25:35.495Z,5.93
2023-03-10T16:28:02.190Z,5.57
2023-03-10T16:30:29.006Z,2.60
2023-03-10T16:33:00.657Z,3.90
2023-03-10T16:35:28.251Z,1.40
2023-03-10T16:37:55.006Z,2.13
2023-03-10T16:40:22.206Z,2.95
2023-03-10T16:42:48.938Z,2.03
2023-03-10T16:45:16.284Z,2.38
2023-03-10T16:47:44.077Z,2.08
2023-03-10T16:50:12.654Z,2.25
2023-03-10T16:52:40.050Z,3.10
2023-03-10T16:55:09.173Z,3.72
2023-03-10T16:57:36.268Z,1.85
2023-03-10T17:00:05.343Z,1.67
2023-03-10T17:02:32.121Z,1.48
2023-03-10T17:04:58.814Z,1.52
2023-03-10T17:07:25.625Z,1.88
2023-03-10T17:09:52.533Z,1.77
2023-03-10T17:12:19.270Z,1.13
2023-03-10T17:14:46.082Z,1.20
2023-03-10T17:17:12.857Z,1.77
2023-03-10T17:19:39.652Z,2.50
2023-03-10T17:22:06.494Z,1.35
2023-03-10T17:24:33.208Z,1.20
2023-03-10T17:26:59.953Z,1.33
2023-03-10T17:29:26.721Z,1.80
2023-03-10T17:31:53.648Z,1.15
2023-03-10T17:34:20.575Z,1.27
2023-03-10T17:36:50.108Z,1.45
2023-03-10T17:39:21.550Z,1.02
2023-03-10T17:41:48.641Z,1.30
2023-03-10T17:44:16.066Z,1.25
2023-03-10T17:46:44.194Z,1.30
2023-03-10T17:49:14.375Z,0.90
2023-03-10T17:51:44.481Z,1.65
2023-03-10T17:54:22.645Z,1.48
2023-03-10T17:56:49.684Z,1.23
2023-03-10T17:59:16.706Z,1.38
2023-03-10T18:01:44.132Z,1.70
2023-03-10T18:04:11.152Z,2.03
2023-03-10T18:06:37.925Z,1.63
2023-03-10T18:09:06.867Z,1.50
2023-03-10T18:11:33.669Z,1.40
2023-03-10T18:14:03.527Z,1.90
2023-03-10T18:16:34.146Z,1.70
2023-03-10T18:19:01.040Z,2.38
2023-03-10T18:21:27.895Z,2.35
2023-03-10T18:23:54.757Z,1.45
2023-03-10T18:26:27.389Z,2.10
2023-03-10T18:28:54.103Z,4.90
2023-03-10T18:31:28.436Z,2.08
2023-03-10T18:33:55.466Z,1.63
2023-03-10T18:36:24.054Z,1.95
2023-03-10T18:38:51.103Z,2.28
2023-03-10T18:41:26.040Z,3.08
2023-03-10T18:43:53.054Z,2.47
2023-03-10T18:46:20.253Z,5.47
2023-03-10T18:48:47.172Z,3.03
2023-03-10T18:51:14.027Z,2.67
2023-03-10T18:53:40.941Z,2.45
2023-03-10T18:56:08.023Z,2.55
2023-03-10T18:58:34.944Z,2.33
2023-03-10T19:01:01.670Z,3.00
2023-03-10T19:03:29.275Z,2.53
2023-03-10T19:05:56.024Z,2.30
2023-03-10T19:08:22.926Z,2.40
2023-03-10T19:10:59.341Z,2.53
2023-03-10T19:13:26.878Z,2.67
2023-03-10T19:15:53.740Z,3.42
2023-03-10T19:18:20.824Z,3.25
2023-03-10T19:20:47.659Z,3.03
2023-03-10T19:23:15.159Z,3.20
2023-03-10T19:25:43.173Z,3.42
2023-03-10T19:28:09.966Z,4.30
2023-03-10T19:30:36.771Z,3.30
2023-03-10T19:33:03.573Z,2.83
2023-03-10T19:35:30.338Z,2.95
2023-03-10T19:37:57.119Z,3.55
2023-03-10T19:40:23.789Z,4.00
2023-03-10T19:42:50.698Z,4.00
2023-03-10T19:45:18.073Z,4.90
2023-03-10T19:47:45.096Z,5.10
2023-03-10T19:50:13.461Z,4.72
2023-03-10T19:52:47.793Z,3.95
2023-03-10T19:55:19.443Z,4.22
2023-03-10T19:57:48.174Z,4.97
2023-03-10T20:02:56.180Z,4.82
2023-03-10T20:05:25.313Z,4.28
2023-03-10T20:07:52.182Z,6.03
2023-03-10T20:10:18.957Z,6.47
2023-03-10T20:12:47.178Z,5.45
2023-03-10T20:15:14.084Z,6.30
2023-03-10T20:17:40.838Z,6.70
2023-03-10T20:20:10.628Z,5.68
2023-03-10T20:22:38.667Z,5.82
2023-03-10T20:25:06.711Z,5.88
2023-03-10T20:27:33.563Z,5.15
2023-03-10T20:30:00.266Z,5.03
2023-03-10T20:32:27.261Z,5.03
2023-03-10T20:34:53.987Z,4.70
2023-03-10T20:37:20.810Z,4.65
2023-03-10T20:39:47.522Z,5.40
2023-03-10T20:42:14.283Z,5.35
2023-03-10T20:44:41.037Z,4.88
2023-03-10T20:47:08.872Z,4.78
2023-03-10T20:49:35.566Z,6.15
2023-03-10T20:52:02.468Z,7.50
2023-03-10T20:54:29.254Z,5.50
2023-03-10T20:56:55.960Z,5.57
2023-03-10T20:59:22.742Z,6.63
2023-03-10T21:01:49.508Z,7.75
2023-03-10T21:04:16.308Z,8.80
2023-03-10T21:06:43.265Z,8.50
2023-03-10T21:09:09.974Z,10.98
2023-03-10T21:11:36.818Z,9.93
2023-03-10T21:14:03.764Z,11.05
2023-03-10T21:16:30.588Z,12.32
2023-03-10T21:18:57.401Z,12.10
2023-03-10T21:21:24.160Z,12.27
2023-03-10T21:23:50.853Z,12.82
2023-03-10T21:26:19.424Z,12.27
2023-03-10T21:28:46.422Z,13.82
2023-03-10T21:31:13.924Z,12.35
2023-03-10T21:33:41.834Z,11.77
2023-03-10T21:36:20.878Z,9.70
2023-03-10T21:38:49.892Z,10.02
2023-03-10T21:41:21.583Z,7.78
2023-03-10T21:43:48.387Z,6.68
2023-03-10T21:46:15.223Z,8.18
2023-03-10T21:48:42.926Z,8.05
2023-03-10T21:51:14.280Z,8.95
2023-03-10T21:53:41.452Z,7.88
2023-03-10T21:56:08.395Z,7.85
2023-03-10T21:58:35.403Z,8.27
2023-03-10T22:01:03.299Z,9.63
2023-03-10T22:03:29.978Z,9.68
2023-03-10T22:05:56.926Z,10.00
2023-03-10T22:08:23.898Z,11.35
2023-03-10T22:10:50.607Z,9.23
2023-03-10T22:13:17.321Z,8.77
2023-03-10T22:15:44.104Z,9.40
2023-03-10T22:18:10.881Z,8.85
2023-03-10T22:20:37.639Z,9.45
2023-03-10T22:23:04.995Z,9.70
2023-03-10T22:25:31.739Z,9.18
2023-03-10T22:27:58.477Z,9.13
2023-03-10T22:30:25.848Z,8.73
2023-03-10T22:32:52.756Z,8.18
2023-03-10T22:35:19.768Z,8.98
2023-03-10T22:37:46.491Z,7.90
2023-03-10T22:40:20.992Z,7.18
2023-03-10T22:42:47.789Z,10.73
2023-03-10T22:45:32.589Z,7.93
2023-03-10T22:48:01.230Z,7.05
2023-03-10T22:50:29.968Z,7.95
2023-03-10T22:52:56.651Z,8.52
2023-03-10T22:55:24.502Z,8.38
2023-03-10T22:57:51.929Z,7.88
2023-03-10T23:00:20.252Z,8.70
2023-03-10T23:02:47.946Z,8.90
2023-03-10T23:05:15.871Z,7.63
2023-03-10T23:07:42.997Z,7.20
2023-03-10T23:10:14.350Z,6.70
2023-03-10T23:12:41.074Z,7.45
2023-03-10T23:15:15.407Z,6.63
2023-03-10T23:17:49.423Z,7.53
2023-03-10T23:20:16.181Z,6.97
2023-03-10T23:22:43.915Z,6.85
2023-03-10T23:25:24.754Z,7.03
2023-03-10T23:27:51.433Z,6.03
2023-03-10T23:30:18.356Z,6.20
2023-03-10T23:32:45.872Z,6.13
2023-03-10T23:35:14.131Z,7.15
2023-03-10T23:37:40.927Z,7.60
2023-03-10T23:40:11.586Z,7.80
2023-03-10T23:42:38.597Z,6.90
2023-03-10T23:45:06.345Z,8.02
2023-03-10T23:47:33.679Z,7.18
2023-03-10T23:50:00.565Z,6.95
2023-03-10T23:52:27.253Z,6.80
2023-03-10T23:54:54.130Z,7.05
2023-03-10T23:57:20.871Z,6.43
2023-03-10T23:59:48.298Z,5.97
